Time;durP1;ratioP1;P1;durP2;ratioP2;P2;SDS_P1;SDS_P2;PMS_P1;PMS_P2;Temp;Humidity;BMP_temperature;BMP_pressure;BME280_temperature;BME280_humidity;BME280_pressure;Samples;Min_cycle;Max_cycle;Signal;HPM_P1;HPM_P2
2023/11/23 00:02:08;;;;;;;6.53;4.60;;;6.50;99.90;;;;;;5052903;28;20230;-62
2023/11/23 00:04:35;;;;;;;5.93;5.00;;;6.60;99.90;;;;;;5053132;28;20197;-62
2023/11/23 00:07:03;;;;;;;6.78;4.85;;;6.50;99.90;;;;;;5053066;28;20205;-61
2023/11/23 00:09:29;;;;;;;6.95;4.78;;;6.60;99.90;;;;;;5053087;28;20205;-61
2023/11/23 00:11:57;;;;;;;6.07;5.05;;;6.60;99.90;;;;;;5052871;28;20237;-61
2023/11/23 00:14:24;;;;;;;6.20;4.47;;;6.60;99.90;;;;;;5052915;28;20201;-61
2023/11/23 00:16:51;;;;;;;9.18;5.43;;;6.60;99.90;;;;;;5052703;28;20225;-61
2023/11/23 00:19:18;;;;;;;6.50;5.05;;;6.60;99.90;;;;;;5053342;28;20241;-62
2023/11/23 00:21:45;;;;;;;8.60;5.03;;;6.60;99.90;;;;;;5052891;28;20218;-62
2023/11/23 00:24:12;;;;;;;6.60;5.00;;;6.60;99.90;;;;;;5052765;28;20284;-61
2023/11/23 00:26:39;;;;;;;5.68;4.75;;;6.60;99.90;;;;;;5052493;28;20593;-62
2023/11/23 00:29:07;;;;;;;7.20;4.60;;;6.60;99.90;;;;;;5056316;28;20201;-61
2023/11/23 00:31:33;;;;;;;9.20;5.30;;;6.60;99.90;;;;;;5057214;28;20218;-62
2023/11/23 00:34:00;;;;;;;9.45;5.45;;;6.60;99.90;;;;;;5057540;28;20209;-62
2023/11/23 00:36:27;;;;;;;9.30;5.43;;;6.60;99.90;;;;;;5057488;28;20316;-62
2023/11/23 00:38:53;;;;;;;8.65;6.07;;;6.60;99.90;;;;;;5057773;28;20221;-62
2023/11/23 00:41:20;;;;;;;10.93;5.43;;;6.70;99.90;;;;;;5057236;28;20229;-62
2023/11/23 00:43:47;;;;;;;6.97;5.60;;;6.60;99.90;;;;;;5057103;28;20201;-62
2023/11/23 00:46:15;;;;;;;8.82;6.78;;;6.70;99.90;;;;;;5056829;28;20207;-62
2023/11/23 00:48:42;;;;;;;10.00;6.72;;;6.70;99.90;;;;;;5056866;28;20219;-62
2023/11/23 00:51:09;;;;;;;8.85;7.25;;;6.70;99.90;;;;;;5056869;28;20225;-63
2023/11/23 00:53:37;;;;;;;9.10;6.35;;;6.60;99.90;;;;;;5056420;28;20205;-62
2023/11/23 00:56:04;;;;;;;10.45;7.35;;;6.70;99.90;;;;;;5057111;28;20197;-62
2023/11/23 00:58:31;;;;;;;14.25;7.60;;;6.70;99.90;;;;;;5056485;28;20278;-61
2023/11/23 01:00:58;;;;;;;9.95;6.60;;;6.70;99.90;;;;;;5056055;28;20213;-63
2023/11/23 01:03:26;;;;;;;10.98;7.03;;;6.70;99.90;;;;;;5055845;28;20648;-63
2023/11/23 01:05:53;;;;;;;8.15;6.95;;;6.70;99.90;;;;;;5055772;28;20731;-63
2023/11/23 01:08:19;;;;;;;11.30;7.72;;;6.70;99.90;;;;;;5056211;28;20193;-62
2023/11/23 01:10:46;;;;;;;10.52;9.00;;;6.70;99.90;;;;;;5055904;28;20202;-64
2023/11/23 01:13:14;;;;;;;8.90;6.50;;;6.70;99.90;;;;;;5055998;28;20210;-61
2023/11/23 01:15:40;;;;;;;10.80;7.55;;;6.70;99.90;;;;;;5056035;28;20205;-62
2023/11/23 01:18:07;;;;;;;8.85;7.20;;;6.70;99.90;;;;;;5055805;28;20560;-62
2023/11/23 01:20:35;;;;;;;12.15;8.25;;;6.60;99.90;;;;;;5055842;28;20205;-62
2023/11/23 01:23:02;;;;;;;11.23;7.65;;;6.60;99.90;;;;;;5056043;28;20221;-62
2023/11/23 01:25:29;;;;;;;14.98;8.25;;;6.60;99.90;;;;;;5055947;28;20206;-62
2023/11/23 01:27:56;;;;;;;14.98;8.07;;;6.60;99.90;;;;;;5055921;28;20197;-62
2023/11/23 01:30:22;;;;;;;11.75;8.75;;;6.60;99.90;;;;;;5055531;28;20206;-62
2023/11/23 01:32:49;;;;;;;12.60;8.30;;;6.60;99.90;;;;;;5055753;28;20225;-62
2023/11/23 01:35:17;;;;;;;13.88;8.57;;;6.60;99.90;;;;;;5055644;28;20565;-62
2023/11/23 01:37:45;;;;;;;12.90;9.07;;;6.70;99.90;;;;;;5055553;28;20229;-62
2023/11/23 01:40:12;;;;;;;14.35;9.25;;;6.70;99.90;;;;;;5054618;28;20706;-62
2023/11/23 01:42:39;;;;;;;14.40;9.55;;;6.70;99.90;;;;;;5055274;28;20711;-62
2023/11/23 01:45:07;;;;;;;13.10;9.10;;;6.70;99.90;;;;;;5055414;28;20205;-62
2023/11/23 01:47:38;;;;;;;12.60;8.85;;;6.70;99.90;;;;;;5055429;28;20213;-62
2023/11/23 01:50:05;;;;;;;17.13;10.18;;;6.70;99.90;;;;;;5055488;28;20197;-62
2023/11/23 01:52:32;;;;;;;12.65;9.52;;;6.70;99.90;;;;;;5055345;28;20225;-62
2023/11/23 01:55:00;;;;;;;11.52;8.68;;;6.70;99.90;;;;;;5055885;28;20202;-62
2023/11/23 01:57:32;;;;;;;14.02;10.02;;;6.70;99.90;;;;;;5055346;28;20218;-62
2023/11/23 01:59:59;;;;;;;14.73;9.25;;;6.70;99.90;;;;;;5055464;28;20190;-62
2023/11/23 02:02:27;;;;;;;15.90;10.35;;;6.70;99.90;;;;;;5054826;28;20237;-62
2023/11/23 02:04:57;;;;;;;13.77;9.70;;;6.70;99.90;;;;;;5054813;28;20642;-62
2023/11/23 02:07:24;;;;;;;13.30;9.55;;;6.80;99.90;;;;;;5055072;28;20193;-62
2023/11/23 02:09:51;;;;;;;13.60;9.93;;;6.80;99.90;;;;;;5054845;28;20698;-61
2023/11/23 02:12:21;;;;;;;21.67;10.40;;;6.80;99.90;;;;;;5054931;28;20218;-62
2023/11/23 02:14:49;;;;;;;14.38;10.65;;;6.80;99.90;;;;;;5054932;28;20182;-62
2023/11/23 02:17:17;;;;;;;13.35;10.20;;;6.80;99.90;;;;;;5054841;28;20198;-62
2023/11/23 02:19:44;;;;;;;14.82;10.00;;;6.80;99.90;;;;;;5054606;28;20202;-62
2023/11/23 02:22:11;;;;;;;15.10;10.43;;;6.80;99.90;;;;;;5054882;28;20217;-62
2023/11/23 02:24:39;;;;;;;17.85;11.77;;;6.80;99.90;;;;;;5054657;28;20202;-62
2023/11/23 02:27:07;;;;;;;16.55;10.15;;;6.90;99.90;;;;;;5054708;28;20209;-62
2023/11/23 02:29:34;;;;;;;14.43;9.98;;;6.90;99.90;;;;;;5054664;28;20210;-62
2023/11/23 02:32:05;;;;;;;16.70;11.63;;;6.80;99.90;;;;;;5054652;28;20222;-62
2023/11/23 02:34:32;;;;;;;15.82;11.23;;;6.90;99.90;;;;;;5054658;28;20285;-62
2023/11/23 02:36:59;;;;;;;18.85;10.70;;;6.90;99.90;;;;;;5054135;28;20232;-62
2023/11/23 02:39:26;;;;;;;16.30;10.68;;;6.90;99.90;;;;;;5054043;28;20724;-62
2023/11/23 02:41:54;;;;;;;18.55;11.45;;;6.90;99.90;;;;;;5054480;28;20225;-60
2023/11/23 02:44:21;;;;;;;15.32;11.27;;;7.00;99.90;;;;;;5054376;28;20209;-63
2023/11/23 02:46:48;;;;;;;15.90;11.20;;;7.00;99.90;;;;;;5054386;28;20205;-62
2023/11/23 02:49:15;;;;;;;14.52;11.07;;;7.00;99.90;;;;;;5054346;28;20205;-60
2023/11/23 02:51:42;;;;;;;15.68;11.40;;;7.00;99.90;;;;;;5052852;28;20229;-61
2023/11/23 02:54:09;;;;;;;14.73;10.18;;;7.00;99.90;;;;;;5053981;28;20686;-61
2023/11/23 02:56:36;;;;;;;19.95;12.20;;;7.10;99.90;;;;;;5053946;28;20575;-61
2023/11/23 02:59:04;;;;;;;14.30;11.20;;;7.10;99.90;;;;;;5054359;28;20309;-63
2023/11/23 03:01:32;;;;;;;14.00;11.27;;;7.10;99.90;;;;;;5054495;28;20233;-61
2023/11/23 03:03:59;;;;;;;14.48;12.18;;;7.10;99.90;;;;;;5054363;28;20186;-61
2023/11/23 03:06:26;;;;;;;16.58;12.60;;;7.10;99.90;;;;;;5054254;28;20206;-62
2023/11/23 03:08:53;;;;;;;18.15;12.60;;;7.10;99.90;;;;;;5053653;28;20202;-61
2023/11/23 03:11:20;;;;;;;19.90;12.75;;;7.10;99.90;;;;;;5053994;28;20222;-61
2023/11/23 03:13:47;;;;;;;18.05;11.27;;;7.10;99.90;;;;;;5053942;28;20202;-61
2023/11/23 03:16:15;;;;;;;16.25;12.85;;;7.10;99.90;;;;;;5053998;28;20198;-61
2023/11/23 03:18:42;;;;;;;15.73;12.52;;;7.10;99.90;;;;;;5053691;28;20226;-61
2023/11/23 03:21:09;;;;;;;20.52;12.90;;;7.10;99.90;;;;;;5053755;28;20221;-62
2023/11/23 03:23:36;;;;;;;16.42;12.18;;;7.20;99.90;;;;;;5053597;28;20690;-61
2023/11/23 03:26:04;;;;;;;15.18;11.38;;;7.20;99.90;;;;;;5053567;28;20280;-61
2023/11/23 03:28:31;;;;;;;16.80;12.32;;;7.20;99.90;;;;;;5053606;28;20248;-60
2023/11/23 03:30:57;;;;;;;21.00;13.55;;;7.20;99.90;;;;;;5053589;28;20202;-63
2023/11/23 03:33:25;;;;;;;18.95;12.73;;;7.20;99.90;;;;;;5053716;28;20209;-62
2023/11/23 03:35:52;;;;;;;16.63;12.40;;;7.20;99.90;;;;;;5053584;28;20214;-62
2023/11/23 03:38:19;;;;;;;23.27;13.70;;;7.10;99.90;;;;;;5053091;28;20225;-62
2023/11/23 03:40:46;;;;;;;18.83;14.10;;;7.10;99.90;;;;;;5053303;28;20241;-62
2023/11/23 03:43:13;;;;;;;18.70;14.85;;;7.00;99.90;;;;;;5053025;28;20683;-62
2023/11/23 03:45:39;;;;;;;20.73;13.50;;;7.00;99.90;;;;;;5053236;28;20197;-62
2023/11/23 03:48:06;;;;;;;22.08;14.35;;;7.00;99.90;;;;;;5053233;28;20205;-62
2023/11/23 03:50:34;;;;;;;25.25;15.32;;;7.00;99.90;;;;;;5053212;28;20292;-62
2023/11/23 03:53:01;;;;;;;19.58;15.43;;;7.10;99.90;;;;;;5053214;28;20308;-63
2023/11/23 03:55:28;;;;;;;21.85;14.05;;;7.10;99.90;;;;;;5053122;28;20201;-62
2023/11/23 03:57:55;;;;;;;18.20;14.38;;;7.10;99.90;;;;;;5053053;28;20221;-62
2023/11/23 04:00:22;;;;;;;20.60;15.00;;;7.10;99.90;;;;;;5053142;28;20206;-62
2023/11/23 04:02:48;;;;;;;21.75;14.80;;;7.10;99.90;;;;;;5052451;28;20742;-62
2023/11/23 04:05:17;;;;;;;22.00;15.55;;;7.10;99.90;;;;;;5052910;28;20698;-62
2023/11/23 04:07:46;;;;;;;24.15;15.55;;;7.10;99.90;;;;;;5052998;28;20212;-62
2023/11/23 04:12:35;;;;;;;24.45;15.07;;;7.20;99.90;;;;;;5091976;27;20558;-64
2023/11/23 04:15:02;;;;;;;20.45;14.65;;;7.20;99.90;;;;;;5090998;28;20207;-63
2023/11/23 04:17:29;;;;;;;21.10;16.15;;;7.20;99.90;;;;;;5090943;28;20200;-63
2023/11/23 04:19:56;;;;;;;19.35;13.50;;;7.30;99.90;;;;;;5090770;28;20208;-63
2023/11/23 04:22:23;;;;;;;20.38;17.13;;;7.30;99.90;;;;;;5090584;28;20221;-63
2023/11/23 04:24:49;;;;;;;19.33;14.73;;;7.30;99.90;;;;;;5091205;28;20295;-63
2023/11/23 04:27:16;;;;;;;18.58;13.88;;;7.30;99.90;;;;;;5090984;28;20215;-63
2023/11/23 04:29:45;;;;;;;17.83;14.63;;;7.30;99.90;;;;;;5098514;28;20196;-63
2023/11/23 04:32:11;;;;;;;16.48;13.93;;;7.30;99.90;;;;;;5102156;28;20235;-64
2023/11/23 04:34:38;;;;;;;16.95;13.77;;;7.30;99.90;;;;;;5102227;28;20298;-64
2023/11/23 04:37:05;;;;;;;18.80;14.32;;;7.40;99.90;;;;;;5103877;28;20206;-63
2023/11/23 04:39:32;;;;;;;19.00;14.73;;;7.40;99.90;;;;;;5103338;28;20200;-63
2023/11/23 04:41:59;;;;;;;18.15;14.27;;;7.40;99.90;;;;;;5103480;28;20224;-62
2023/11/23 04:44:25;;;;;;;17.75;13.25;;;7.40;99.90;;;;;;5095425;28;20204;-62
2023/11/23 04:46:53;;;;;;;19.30;14.82;;;7.50;99.90;;;;;;5090418;28;20204;-62
2023/11/23 04:49:20;;;;;;;18.35;13.95;;;7.50;99.90;;;;;;5090251;28;20207;-62
2023/11/23 04:51:47;;;;;;;20.10;14.50;;;7.50;99.90;;;;;;5090223;28;20232;-64
2023/11/23 04:54:13;;;;;;;17.98;13.43;;;7.50;99.90;;;;;;5090303;28;20201;-63
2023/11/23 04:56:40;;;;;;;19.33;15.60;;;7.50;99.90;;;;;;5089819;28;20200;-63
2023/11/23 04:59:07;;;;;;;18.50;14.48;;;7.50;99.90;;;;;;5091345;28;20290;-63
2023/11/23 05:01:34;;;;;;;17.52;13.45;;;7.50;99.90;;;;;;5108200;22;20233;-60
2023/11/23 05:04:02;;;;;;;16.42;13.43;;;7.50;99.90;;;;;;5074545;28;20205;-60
2023/11/23 05:06:29;;;;;;;19.95;14.50;;;7.50;99.90;;;;;;5075638;28;20201;-60
2023/11/23 05:08:56;;;;;;;19.10;14.05;;;7.60;99.90;;;;;;5073659;28;20229;-61
2023/11/23 05:11:23;;;;;;;16.77;13.73;;;7.60;99.90;;;;;;5074501;28;20235;-61
2023/11/23 05:13:50;;;;;;;17.73;13.85;;;7.60;99.90;;;;;;5078373;28;20201;-62
2023/11/23 05:16:17;;;;;;;16.45;13.50;;;7.70;99.90;;;;;;5078367;28;20197;-61
2023/11/23 05:18:43;;;;;;;17.83;14.25;;;7.70;99.90;;;;;;5077445;28;20212;-62
2023/11/23 05:21:11;;;;;;;19.08;15.45;;;7.80;99.90;;;;;;5070844;28;20732;-60
2023/11/23 05:23:38;;;;;;;15.60;13.63;;;7.80;99.90;;;;;;5058831;28;20205;-62
2023/11/23 05:26:05;;;;;;;18.23;14.43;;;7.80;99.90;;;;;;5056617;28;20209;-62
2023/11/23 05:28:32;;;;;;;17.52;13.90;;;7.80;99.90;;;;;;5056462;28;20210;-62
2023/11/23 05:30:59;;;;;;;16.65;14.57;;;7.90;99.90;;;;;;5056512;28;20583;-62
2023/11/23 05:33:25;;;;;;;15.75;13.57;;;7.90;99.90;;;;;;5056837;28;20224;-62
2023/11/23 05:35:52;;;;;;;19.27;15.00;;;7.90;99.90;;;;;;5059209;28;20212;-61
2023/11/23 05:38:20;;;;;;;22.10;15.00;;;7.90;99.90;;;;;;5059161;28;20209;-62
2023/11/23 05:40:47;;;;;;;19.63;14.70;;;7.90;99.90;;;;;;5056393;28;20694;-62
2023/11/23 05:43:14;;;;;;;19.40;14.95;;;7.90;99.90;;;;;;5056305;28;20198;-61
2023/11/23 05:45:40;;;;;;;19.75;15.55;;;7.90;99.90;;;;;;5055992;28;20288;-62
2023/11/23 05:48:07;;;;;;;21.40;15.23;;;7.90;99.90;;;;;;5055696;28;20702;-62
2023/11/23 05:50:34;;;;;;;22.15;16.15;;;7.90;99.90;;;;;;5056198;28;20574;-63
2023/11/23 05:53:00;;;;;;;22.42;16.02;;;7.90;99.90;;;;;;5055581;28;20229;-62
2023/11/23 05:55:28;;;;;;;18.65;15.20;;;7.90;99.90;;;;;;5056022;28;20202;-63
2023/11/23 05:57:55;;;;;;;20.15;15.68;;;8.00;99.90;;;;;;5056180;28;20219;-63
2023/11/23 06:00:22;;;;;;;19.73;15.52;;;8.00;99.90;;;;;;5056126;28;20296;-62
2023/11/23 06:02:49;;;;;;;19.00;16.25;;;8.00;99.90;;;;;;5055630;28;20230;-62
2023/11/23 06:05:15;;;;;;;20.55;15.63;;;8.00;99.90;;;;;;5055718;28;20206;-62
2023/11/23 06:07:42;;;;;;;18.48;15.20;;;8.00;99.90;;;;;;5055663;28;20209;-62
2023/11/23 06:10:11;;;;;;;21.42;15.23;;;8.10;99.90;;;;;;5055681;28;20612;-62
2023/11/23 06:12:40;;;;;;;19.80;16.17;;;8.10;99.90;;;;;;5055450;28;20230;-61
2023/11/23 06:15:09;;;;;;;20.42;15.77;;;8.10;99.90;;;;;;5057874;28;20224;-62
2023/11/23 06:17:35;;;;;;;21.15;15.57;;;8.10;99.90;;;;;;5055458;28;20208;-61
2023/11/23 06:20:03;;;;;;;19.92;15.38;;;8.20;99.90;;;;;;5056392;28;20213;-62
2023/11/23 06:22:30;;;;;;;19.60;15.13;;;8.20;99.90;;;;;;5055534;28;20249;-61
2023/11/23 06:24:57;;;;;;;21.38;16.30;;;8.30;99.90;;;;;;5055125;28;20620;-60
2023/11/23 06:27:24;;;;;;;22.58;16.70;;;8.30;99.90;;;;;;5055424;28;20212;-61
2023/11/23 06:29:52;;;;;;;22.15;16.90;;;8.30;99.90;;;;;;5055603;28;20248;-61
2023/11/23 06:32:19;;;;;;;20.10;16.17;;;8.40;99.90;;;;;;5055375;28;20244;-61
2023/11/23 06:34:46;;;;;;;21.98;17.65;;;8.40;99.90;;;;;;5055403;28;20202;-61
2023/11/23 06:37:12;;;;;;;24.10;17.15;;;8.40;99.90;;;;;;5055628;28;20228;-61
2023/11/23 06:39:39;;;;;;;24.58;17.30;;;8.50;99.90;;;;;;5057618;28;20693;-62
2023/11/23 06:42:06;;;;;;;19.80;16.33;;;8.50;99.90;;;;;;5062599;28;20227;-61
2023/11/23 06:44:33;;;;;;;24.73;15.75;;;8.50;99.90;;;;;;5055199;28;20214;-61
2023/11/23 06:47:01;;;;;;;21.25;15.88;;;8.50;99.90;;;;;;5055414;28;20202;-61
2023/11/23 06:49:28;;;;;;;27.63;16.67;;;8.60;99.90;;;;;;5055549;28;20213;-61
2023/11/23 06:51:55;;;;;;;23.88;16.05;;;8.60;99.90;;;;;;5054710;28;20579;-62
2023/11/23 06:54:22;;;;;;;24.63;18.83;;;8.60;99.90;;;;;;5054978;28;20201;-61
2023/11/23 06:56:48;;;;;;;21.75;15.98;;;8.50;99.90;;;;;;5054756;28;20208;-61
2023/11/23 06:59:15;;;;;;;30.73;18.08;;;8.50;99.90;;;;;;5055027;28;20553;-60
2023/11/23 07:01:42;;;;;;;25.23;18.02;;;8.50;99.90;;;;;;5054515;28;20731;-61
2023/11/23 07:04:10;;;;;;;24.33;17.90;;;8.40;99.90;;;;;;5054842;28;20213;-60
2023/11/23 07:06:37;;;;;;;21.00;17.27;;;8.40;99.90;;;;;;5054854;28;20296;-62
2023/11/23 07:09:06;;;;;;;22.02;16.67;;;8.40;99.90;;;;;;5054403;28;20667;-60
2023/11/23 07:11:33;;;;;;;22.17;16.63;;;8.40;99.90;;;;;;5054483;28;20313;-61
2023/11/23 07:14:00;;;;;;;25.50;17.70;;;8.40;99.90;;;;;;5055145;28;20201;-61
2023/11/23 07:16:28;;;;;;;22.15;17.27;;;8.40;99.90;;;;;;5054584;28;20198;-61
2023/11/23 07:18:54;;;;;;;22.73;16.40;;;8.40;99.90;;;;;;5054549;28;20201;-62
2023/11/23 07:21:22;;;;;;;22.35;15.35;;;8.40;99.90;;;;;;5054833;28;20230;-61
2023/11/23 07:23:49;;;;;;;22.98;17.13;;;8.40;99.90;;;;;;5054457;28;20202;-62
2023/11/23 07:26:16;;;;;;;22.80;16.38;;;8.40;99.90;;;;;;5055200;28;20217;-62
2023/11/23 07:28:43;;;;;;;24.65;16.67;;;8.40;99.90;;;;;;5054211;28;20205;-62
2023/11/23 07:31:09;;;;;;;20.20;15.05;;;8.40;99.90;;;;;;5053990;28;20598;-61
2023/11/23 07:33:37;;;;;;;23.38;16.38;;;8.50;99.90;;;;;;5054111;28;20209;-61
2023/11/23 07:36:04;;;;;;;24.70;16.90;;;8.50;99.90;;;;;;5054394;28;20205;-61
2023/11/23 07:38:33;;;;;;;21.08;16.23;;;8.50;99.90;;;;;;5054687;28;20202;-61
2023/11/23 07:41:00;;;;;;;23.38;15.93;;;8.60;99.90;;;;;;5056931;28;20745;-62
2023/11/23 07:43:27;;;;;;;21.17;14.45;;;8.60;99.90;;;;;;5058655;28;20209;-62
2023/11/23 07:45:55;;;;;;;20.17;14.68;;;8.60;99.90;;;;;;5061045;28;20205;-62
2023/11/23 07:48:21;;;;;;;20.30;15.50;;;8.70;99.90;;;;;;5058574;28;20197;-62
2023/11/23 07:50:48;;;;;;;22.55;14.90;;;8.70;99.90;;;;;;5059476;28;20676;-62
2023/11/23 07:53:16;;;;;;;20.67;15.10;;;8.70;99.90;;;;;;5058352;28;20221;-61
2023/11/23 07:55:45;;;;;;;21.80;15.25;;;8.80;99.90;;;;;;5054212;28;20205;-60
2023/11/23 07:58:12;;;;;;;18.42;13.80;;;8.90;99.90;;;;;;5054192;28;20247;-61
2023/11/23 08:00:40;;;;;;;22.00;14.40;;;8.90;99.90;;;;;;5053423;28;20596;-62
2023/11/23 08:03:07;;;;;;;18.25;13.43;;;9.00;99.90;;;;;;5056082;28;20233;-61
2023/11/23 08:05:35;;;;;;;17.05;12.73;;;9.00;99.90;;;;;;5058088;28;20212;-61
2023/11/23 08:08:02;;;;;;;17.92;13.50;;;9.00;99.90;;;;;;5055910;28;20209;-60
2023/11/23 08:10:29;;;;;;;20.33;13.35;;;9.10;99.90;;;;;;5053896;28;20208;-62
2023/11/23 08:12:58;;;;;;;17.52;12.38;;;9.20;99.90;;;;;;5053300;28;20232;-61
2023/11/23 08:15:25;;;;;;;18.48;14.55;;;9.20;99.90;;;;;;5053611;28;20205;-61
2023/11/23 08:17:53;;;;;;;17.83;12.82;;;9.20;99.90;;;;;;5053942;28;20201;-61
2023/11/23 08:20:23;;;;;;;16.83;12.80;;;9.30;99.90;;;;;;5053734;28;20206;-62
2023/11/23 08:22:51;;;;;;;15.00;12.20;;;9.30;99.90;;;;;;5053852;28;20595;-61
2023/11/23 08:25:18;;;;;;;14.70;12.30;;;9.40;99.90;;;;;;5053606;28;20206;-61
2023/11/23 08:27:45;;;;;;;12.68;10.70;;;9.50;99.90;;;;;;5054383;28;20209;-63
2023/11/23 08:30:15;;;;;;;16.83;11.80;;;9.50;99.90;;;;;;5063818;28;20205;-60
2023/11/23 08:32:42;;;;;;;16.67;10.85;;;9.60;99.90;;;;;;5057714;28;20571;-60
2023/11/23 08:35:09;;;;;;;14.57;11.77;;;9.60;99.90;;;;;;5054195;28;20198;-62
2023/11/23 08:37:36;;;;;;;18.80;12.18;;;9.70;99.90;;;;;;5053747;28;20206;-59
2023/11/23 08:40:04;;;;;;;14.88;10.80;;;9.80;99.90;;;;;;5053800;28;20212;-61
2023/11/23 08:42:31;;;;;;;14.45;10.98;;;9.80;99.90;;;;;;5053201;28;20229;-61
2023/11/23 08:44:58;;;;;;;13.80;11.90;;;9.90;99.90;;;;;;5053251;28;20197;-60
2023/11/23 08:47:26;;;;;;;13.93;11.60;;;9.90;99.90;;;;;;5053394;28;20440;-62
2023/11/23 08:49:53;;;;;;;16.37;12.60;;;10.00;99.90;;;;;;5054030;28;20485;-61
2023/11/23 08:52:21;;;;;;;16.27;11.80;;;10.00;99.90;;;;;;5053769;28;20480;-63
2023/11/23 08:54:48;;;;;;;15.77;11.70;;;10.00;99.90;;;;;;5053606;28;20641;-62
2023/11/23 08:57:15;;;;;;;15.90;12.00;;;10.00;99.90;;;;;;5053896;28;20202;-62
2023/11/23 08:59:41;;;;;;;14.13;11.48;;;10.00;99.90;;;;;;5057834;28;20450;-61
2023/11/23 09:02:09;;;;;;;17.75;12.48;;;10.00;99.90;;;;;;5057211;28;20240;-61
2023/11/23 09:04:39;;;;;;;17.20;12.23;;;10.00;99.90;;;;;;5059439;28;20211;-61
2023/11/23 09:07:06;;;;;;;14.73;12.20;;;10.00;99.90;;;;;;5058520;28;20663;-62
2023/11/23 09:09:33;;;;;;;15.40;11.13;;;10.00;99.90;;;;;;5061972;28;20440;-62
2023/11/23 09:12:01;;;;;;;14.15;10.55;;;10.10;99.90;;;;;;5062392;28;20471;-61
2023/11/23 09:14:28;;;;;;;11.68;10.00;;;10.10;99.90;;;;;;5062107;28;20206;-61
2023/11/23 09:16:55;;;;;;;15.77;12.10;;;10.20;99.90;;;;;;5061229;28;20206;-61
2023/11/23 09:19:22;;;;;;;13.60;10.80;;;10.20;99.90;;;;;;5059705;28;20288;-61
2023/11/23 09:21:50;;;;;;;13.63;10.20;;;10.30;99.90;;;;;;5057660;28;20559;-61
2023/11/23 09:24:17;;;;;;;13.70;10.17;;;10.30;99.90;;;;;;5056626;28;20448;-62
2023/11/23 09:26:46;;;;;;;14.03;11.00;;;10.40;99.90;;;;;;5056887;28;20887;-63
2023/11/23 09:29:13;;;;;;;11.97;10.20;;;10.40;99.90;;;;;;5056471;28;20467;-61
2023/11/23 09:31:39;;;;;;;14.07;10.50;;;10.40;99.90;;;;;;5056261;28;20467;-63
2023/11/23 09:34:06;;;;;;;12.60;11.27;;;10.50;99.90;;;;;;5056127;28;20531;-60
2023/11/23 09:36:33;;;;;;;11.97;9.30;;;10.50;99.90;;;;;;5055818;28;20444;-63
2023/11/23 09:39:01;;;;;;;15.17;10.33;;;10.50;99.90;;;;;;5056151;28;20451;-61
2023/11/23 09:41:35;;;;;;;15.80;12.70;;;10.50;99.90;;;;;;5055620;28;20455;-62
2023/11/23 09:44:02;;;;;;;14.47;10.83;;;10.50;99.90;;;;;;5056361;28;20428;-61
2023/11/23 09:46:30;;;;;;;15.20;10.20;;;10.50;99.90;;;;;;5055669;28;20816;-61
2023/11/23 09:48:57;;;;;;;13.20;10.90;;;10.50;99.90;;;;;;5056142;28;21003;-61
2023/11/23 09:51:24;;;;;;;15.10;10.30;;;10.60;99.90;;;;;;5056324;28;20468;-62
2023/11/23 09:53:56;;;;;;;17.27;11.50;;;10.60;99.90;;;;;;5056509;28;20515;-62
2023/11/23 09:56:24;;;;;;;13.33;10.73;;;10.60;99.90;;;;;;5056543;28;20498;-61
2023/11/23 09:58:51;;;;;;;12.13;9.30;;;10.60;99.90;;;;;;5056231;28;20436;-59
2023/11/23 10:01:19;;;;;;;13.13;10.50;;;10.60;99.90;;;;;;5055871;28;20472;-61
2023/11/23 10:03:52;;;;;;;11.43;10.23;;;10.60;99.90;;;;;;5055811;28;20914;-62
2023/11/23 10:06:19;;;;;;;12.73;10.53;;;10.60;99.90;;;;;;5056288;28;20431;-62
2023/11/23 10:08:46;;;;;;;16.80;10.03;;;10.60;99.90;;;;;;5055790;28;20452;-62
2023/11/23 10:11:14;;;;;;;16.83;10.73;;;10.60;99.90;;;;;;5056730;28;20521;-60
2023/11/23 10:13:42;;;;;;;11.70;9.87;;;10.70;99.90;;;;;;5055971;28;20585;-62
2023/11/23 10:16:12;;;;;;;13.40;10.63;;;10.70;99.90;;;;;;5055244;28;20448;-61
2023/11/23 10:18:39;;;;;;;11.60;9.50;;;10.70;99.90;;;;;;5055643;28;20451;-62
2023/11/23 10:21:06;;;;;;;11.17;9.83;;;10.70;99.90;;;;;;5056179;28;20468;-62
2023/11/23 10:23:33;;;;;;;13.00;10.00;;;10.70;99.90;;;;;;5061412;28;20445;-62
2023/11/23 10:26:00;;;;;;;13.97;10.47;;;10.80;99.90;;;;;;5059124;28;20451;-62
2023/11/23 10:28:27;;;;;;;14.67;9.87;;;10.80;99.90;;;;;;5056508;28;20451;-62
2023/11/23 10:30:55;;;;;;;14.17;9.37;;;10.80;99.90;;;;;;5056410;28;20440;-62
2023/11/23 10:33:26;;;;;;;12.87;10.40;;;10.80;99.90;;;;;;5056158;28;20472;-63
2023/11/23 10:35:56;;;;;;;11.23;9.60;;;10.90;99.90;;;;;;5056314;28;20435;-62
2023/11/23 10:38:24;;;;;;;10.47;9.47;;;10.90;99.90;;;;;;5057417;28;20957;-63
2023/11/23 10:40:51;;;;;;;12.90;9.20;;;10.90;99.90;;;;;;5059943;28;20448;-62
2023/11/23 10:43:18;;;;;;;10.33;8.90;;;10.90;99.90;;;;;;5057675;28;20436;-62
2023/11/23 10:45:48;;;;;;;10.60;8.57;;;10.90;99.90;;;;;;5055481;28;20902;-62
2023/11/23 10:48:18;;;;;;;14.37;8.90;;;10.90;99.90;;;;;;5055374;28;20480;-64
2023/11/23 10:50:46;;;;;;;11.37;8.80;;;10.90;99.90;;;;;;5055169;28;20435;-61
2023/11/23 10:53:15;;;;;;;9.23;7.23;;;10.90;99.90;;;;;;5054880;28;20484;-62
2023/11/23 10:55:42;;;;;;;8.73;7.60;;;11.00;99.90;;;;;;5054922;28;20448;-61
2023/11/23 10:58:15;;;;;;;14.60;8.33;;;11.00;99.90;;;;;;5054714;28;20443;-63
2023/11/23 11:00:43;;;;;;;10.23;7.30;;;11.00;99.90;;;;;;5054431;28;20448;-62
2023/11/23 11:03:11;;;;;;;8.40;7.47;;;11.10;99.90;;;;;;5054222;28;20934;-62
2023/11/23 11:05:45;;;;;;;10.83;8.27;;;11.10;99.90;;;;;;5054632;28;20448;-62
2023/11/23 11:08:17;;;;;;;10.90;6.47;;;11.10;99.90;;;;;;5054418;28;20428;-62
2023/11/23 11:10:50;;;;;;;9.10;6.40;;;11.10;99.90;;;;;;5054554;28;20424;-60
2023/11/23 11:13:18;;;;;;;10.20;6.00;;;11.20;99.90;;;;;;5054432;28;20476;-62
2023/11/23 11:15:50;;;;;;;11.50;6.07;;;11.20;99.90;;;;;;5054277;28;20521;-61
2023/11/23 11:18:21;;;;;;;8.10;5.73;;;11.30;99.90;;;;;;5055057;28;20425;-61
2023/11/23 11:21:01;;;;;;;8.83;6.43;;;11.30;99.90;;;;;;5053991;28;20785;-62
2023/11/23 11:23:40;;;;;;;10.30;6.40;;;11.30;99.90;;;;;;5053865;28;20425;-62
2023/11/23 11:26:10;;;;;;;8.97;7.00;;;11.40;99.90;;;;;;5054755;28;20439;-62
2023/11/23 11:28:37;;;;;;;8.57;6.40;;;11.30;99.90;;;;;;5053988;28;20505;-63
2023/11/23 11:31:08;;;;;;;8.33;6.23;;;11.40;99.90;;;;;;5054173;28;20993;-61
2023/11/23 11:33:37;;;;;;;7.67;5.83;;;11.40;99.90;;;;;;5053931;28;20602;-62
2023/11/23 11:36:07;;;;;;;7.73;5.83;;;11.40;99.90;;;;;;5054041;28;20448;-61
2023/11/23 11:38:36;;;;;;;8.73;5.97;;;11.40;99.90;;;;;;5053984;28;20451;-63
2023/11/23 11:41:05;;;;;;;7.63;5.93;;;11.40;99.90;;;;;;5054021;28;20460;-61
2023/11/23 11:43:33;;;;;;;6.10;5.20;;;11.40;99.90;;;;;;5053786;28;20513;-62
2023/11/23 11:46:00;;;;;;;6.23;5.70;;;11.40;99.90;;;;;;5053240;28;21004;-62
2023/11/23 11:48:27;;;;;;;6.63;5.20;;;11.50;99.90;;;;;;5053379;28;20887;-62
2023/11/23 11:50:57;;;;;;;9.77;5.70;;;11.40;99.90;;;;;;5053338;28;20452;-61
2023/11/23 11:53:25;;;;;;;7.30;5.13;;;11.50;99.90;;;;;;5053138;28;20483;-63
2023/11/23 11:55:55;;;;;;;5.77;4.00;;;11.50;99.90;;;;;;5053192;28;20441;-61
2023/11/23 11:58:22;;;;;;;10.17;5.27;;;11.50;99.90;;;;;;5053495;28;20444;-61
2023/11/23 12:00:49;;;;;;;9.10;4.67;;;11.50;99.90;;;;;;5053433;28;20564;-62
2023/11/23 12:03:16;;;;;;;10.10;5.43;;;11.50;99.90;;;;;;5053405;28;20898;-62
2023/11/23 12:05:45;;;;;;;6.83;5.00;;;11.50;99.90;;;;;;5053156;28;20914;-63
2023/11/23 12:08:12;;;;;;;6.80;4.67;;;11.50;99.90;;;;;;5053942;28;20513;-62
2023/11/23 12:10:41;;;;;;;9.13;5.03;;;11.50;99.90;;;;;;5053323;28;20811;-62
2023/11/23 12:13:14;;;;;;;6.70;4.80;;;11.50;99.90;;;;;;5053771;28;20480;-62
2023/11/23 12:15:41;;;;;;;6.20;4.70;;;11.50;99.90;;;;;;5053645;28;20432;-62
2023/11/23 12:18:08;;;;;;;6.60;4.53;;;11.50;99.90;;;;;;5053692;28;20442;-63
2023/11/23 12:20:37;;;;;;;7.93;5.10;;;11.50;99.90;;;;;;5053856;28;20852;-62
2023/11/23 12:23:04;;;;;;;5.63;4.60;;;11.60;99.90;;;;;;5057073;28;20479;-62
2023/11/23 12:25:33;;;;;;;8.10;4.50;;;11.60;99.90;;;;;;5062208;28;20448;-62
2023/11/23 12:28:02;;;;;;;7.63;5.10;;;11.60;99.90;;;;;;5056788;28;20465;-63
2023/11/23 12:30:29;;;;;;;6.60;4.80;;;11.60;99.90;;;;;;5055123;28;20463;-60
2023/11/23 12:32:57;;;;;;;6.10;4.10;;;11.60;99.90;;;;;;5058132;28;20491;-61
2023/11/23 12:35:24;;;;;;;9.03;5.30;;;11.60;99.90;;;;;;5059629;28;20447;-62
2023/11/23 12:37:51;;;;;;;5.53;4.53;;;11.60;99.90;;;;;;5059888;28;20440;-62
2023/11/23 12:40:17;;;;;;;5.20;4.70;;;11.60;99.90;;;;;;5059884;28;20963;-63
2023/11/23 12:42:46;;;;;;;6.23;5.53;;;11.60;99.90;;;;;;5060598;28;20464;-61